Garfield, KY (40140)

03:35 PM CDT die 25o October, anno 2014 (GMT -0500)
Old Weldon | Change Station
CLOSE
Current Station
Personal Weather Stations
Location: Brandenburg, KY
Elevation: 636 ft
Nearby Weather Stations

Elev 636 ft 37.97 °N, 86.13 °W | Updated 9 seconds ago

Serena
Serena
75.7 °F
Feels Like 78 °F
N
2.0
Ventus Variabilis Ventus from Magis Zephyrus quam Auster
Gusts 2.0 mph

Hodie
High -- | Low -- °F
--% Chance of Precip.
Yesterday
High -- | Low -- °F
Precip. -- in
7:03 AM 5:54 PM
Waxing Crescent, 4% visible
Pressio 29.96 in
Visibilitas 10.0 milia passuum
Clouds Serena
Index Caloris 78 °F
Frigus in quo Ros apparet 62 °F
Umor 63%
Rainfall 0.00 in
Snow Depth Not available.
UV 3 out of 12
Pollen 1.40 out of 12
Ozone Good
PM2.5 Moderate
Flu Activity Sporadic
METAR KFTK 251958Z AUTO 25009KT 10SM CLR 24/16 A2995 RMK AO2 SLP143 T02400155

More Conditions Fewer Conditions

Pressio 29.96 in
Visibilitas 10.0 milia passuum
Clouds Serena
Index Caloris 78 °F
Frigus in quo Ros apparet 62 °F
Umor 63%
Rainfall 0.00 in
Snow Depth Not available.
UV 3 out of 12
Pollen 1.40 out of 12
Ozone Good
PM2.5 Moderate
Flu Activity Sporadic
METAR KFTK 251958Z AUTO 25009KT 10SM CLR 24/16 A2995 RMK AO2 SLP143 T02400155

More Conditions Fewer Conditions

10-Day Weather Forecast

Almanac

Astronomy

Oct. 25, 2014 Rise Set
Actual Time 7:03 AM CDT 5:54 PM CDT
Civil Twilight 6:36 AM CDT 6:21 PM CDT
Nautical Twilight 6:05 AM CDT 6:52 PM CDT
Astronomical Twilight 5:35 AM CDT 7:22 PM CDT
Moon 8:40 AM CDT 7:18 PM CDT
Length Of Visible Light 11h 44m
Length of Day
10h 51m
Tomorrow will be 2m 13s shorter.
Waxing Crescent, 4% of the Moon is Illuminated
Hodie
Waxing Crescent
Oct 30
First Quarter
Nov 6
Full
Nov 14
Last Quarter
Nov 22
New

Today's Extremes

State Highs State Lows

Community

WunderPhotos

Upload Photos

1,764,985 photos uploaded!

Nearby

Air Quality

  Air Quality AQ Index Pollutant
Yesterday Good
PM10
Yesterday Good
OZONE
Current Moderate
PM2.5
Current Good
OZONE
Die Saturni Moderate
PM2.5
Die Saturni Good
OZONE
Die Solis Moderate
PM2.5
Die Solis Good
OZONE
Die Lunae Moderate
PM2.5
Die Lunae Good
OZONE

Snow Depth

Station Depth Elevation
No new snow has been reported.

Earthquake Activity

City Distance Mag. Time & Date
No recent earthquake activity has been reported nearby.
Minimum magnitude displayed is 2.5.

Coastal Water Temperatures

Locus Calor
No Stations Reporting

Nearby Weather Stations